createdAt,value
2018-02-05T00:00:24.254Z,98420.08
2018-02-05T00:00:55.882Z,98422.21
2018-02-05T00:01:27.506Z,98427.74
2018-02-05T00:01:59.233Z,98426.91
2018-02-05T00:02:30.853Z,98429.07
2018-02-05T00:03:02.485Z,98419.66
2018-02-05T00:03:34.106Z,98424.77
2018-02-05T00:04:05.730Z,98426.04
2018-02-05T00:04:37.354Z,98421.79
2018-02-05T00:05:08.974Z,98425.20
2018-02-05T00:05:40.597Z,98422.22
2018-02-05T00:06:12.226Z,98424.77
2018-02-05T00:06:43.866Z,98425.23
2018-02-05T00:07:15.530Z,98423.92
2018-02-05T00:07:47.158Z,98423.49
2018-02-05T00:08:18.929Z,98428.59
2018-02-05T00:08:50.558Z,98419.70
2018-02-05T00:09:22.186Z,98424.77
2018-02-05T00:09:53.861Z,98424.34
2018-02-05T00:10:25.475Z,98422.20
2018-02-05T00:10:57.098Z,98424.80
2018-02-05T00:11:28.721Z,98427.79
2018-02-05T00:12:00.341Z,98425.20
2018-02-05T00:12:31.966Z,98428.18
2018-02-05T00:13:03.589Z,98425.63
2018-02-05T00:13:35.249Z,98419.66
2018-02-05T00:14:06.874Z,98425.16
2018-02-05T00:14:38.542Z,98427.31
2018-02-05T00:15:10.161Z,98431.54
2018-02-05T00:15:41.781Z,98425.09
2018-02-05T00:16:13.405Z,98426.84
2018-02-05T00:16:45.030Z,98426.42
2018-02-05T00:17:16.653Z,98429.45
2018-02-05T00:17:48.282Z,98432.85
2018-02-05T00:18:19.906Z,98430.69
2018-02-05T00:18:51.598Z,98430.73
2018-02-05T00:19:23.218Z,98431.16
2018-02-05T00:19:54.873Z,98432.00
2018-02-05T00:20:26.502Z,98430.30
2018-02-05T00:20:58.125Z,98432.86
2018-02-05T00:21:29.754Z,98434.13
2018-02-05T00:22:01.374Z,98432.00
2018-02-05T00:22:32.997Z,98436.22
2018-02-05T00:23:04.629Z,98433.66
2018-02-05T00:23:36.254Z,98437.08
2018-02-05T00:24:07.921Z,98435.38
2018-02-05T00:24:39.542Z,98441.75
2018-02-05T00:25:11.221Z,98439.20
2018-02-05T00:25:42.845Z,98440.91
2018-02-05T00:26:14.469Z,98436.69
2018-02-05T00:26:46.093Z,98438.83
2018-02-05T00:27:17.723Z,98440.56
2018-02-05T00:27:49.346Z,98440.10
2018-02-05T00:28:20.974Z,98440.95
2018-02-05T00:28:52.593Z,98446.91
2018-02-05T00:29:24.214Z,98442.22
2018-02-05T00:29:55.842Z,98446.44
2018-02-05T00:30:27.530Z,98438.35
2018-02-05T00:30:59.153Z,98452.41
2018-02-05T00:31:30.778Z,98443.03
2018-02-05T00:32:02.458Z,98448.57
2018-02-05T00:32:34.085Z,98449.03
2018-02-05T00:33:05.716Z,98452.83
2018-02-05T00:33:37.342Z,98449.00
2018-02-05T00:34:08.971Z,98451.98
2018-02-05T00:34:40.593Z,98451.55
2018-02-05T00:35:12.214Z,98448.99
2018-02-05T00:35:43.847Z,98450.66
2018-02-05T00:36:15.481Z,98448.95
2018-02-05T00:36:47.109Z,98451.92
2018-02-05T00:37:18.730Z,98450.23
2018-02-05T00:37:50.354Z,98457.94
2018-02-05T00:38:21.977Z,98452.83
2018-02-05T00:38:53.606Z,98455.80
2018-02-05T00:39:25.233Z,98454.95
2018-02-05T00:39:56.889Z,98458.36
2018-02-05T00:40:28.509Z,98455.80
2018-02-05T00:41:00.181Z,98455.84
2018-02-05T00:41:31.810Z,98462.19
2018-02-05T00:42:03.471Z,98461.34
2018-02-05T00:42:35.098Z,98456.19
2018-02-05T00:43:06.734Z,98454.92
2018-02-05T00:43:38.381Z,98458.75
2018-02-05T00:44:10.037Z,98460.91
2018-02-05T00:44:41.666Z,98467.73
2018-02-05T00:45:13.298Z,98461.77
2018-02-05T00:45:44.994Z,98462.15
2018-02-05T00:46:16.613Z,98470.67
2018-02-05T00:46:48.233Z,98468.55
2018-02-05T00:47:19.862Z,98471.98
2018-02-05T00:47:51.486Z,98470.75
2018-02-05T00:48:23.109Z,98473.73
2018-02-05T00:48:54.734Z,98464.37
2018-02-05T00:49:26.353Z,98475.39
2018-02-05T00:49:57.974Z,98466.88
2018-02-05T00:50:29.608Z,98470.71
2018-02-05T00:51:01.302Z,98388.86
2018-02-05T00:51:32.925Z,98476.20
2018-02-05T00:52:04.550Z,98474.50
2018-02-05T00:52:36.178Z,98471.14
2018-02-05T00:53:07.806Z,98474.16
2018-02-05T00:53:39.428Z,98470.33
2018-02-05T00:54:11.053Z,98469.91
2018-02-05T00:54:42.673Z,98471.22
2018-02-05T00:55:14.298Z,98469.14
2018-02-05T00:55:45.926Z,98477.61
2018-02-05T00:56:17.594Z,98481.45
2018-02-05T00:56:49.213Z,98475.06
2018-02-05T00:57:20.837Z,98483.15
2018-02-05T00:57:52.459Z,98482.30
2018-02-05T00:58:24.082Z,98476.33
2018-02-05T00:58:55.704Z,98476.33
2018-02-05T00:59:27.330Z,98476.33
2018-02-05T00:59:58.958Z,98484.00
2018-02-05T01:00:30.582Z,98477.61
2018-02-05T01:01:02.205Z,98480.12
2018-02-05T01:01:33.869Z,98474.59
2018-02-05T01:02:05.499Z,98481.45
2018-02-05T01:02:37.137Z,98475.91
2018-02-05T01:03:08.766Z,98458.21
2018-02-05T01:03:40.386Z,98477.61
2018-02-05T01:04:12.009Z,98487.84
2018-02-05T01:04:43.638Z,98485.75
2018-02-05T01:05:15.269Z,98479.74
2018-02-05T01:05:46.889Z,98480.59
2018-02-05T01:06:18.569Z,98486.13
2018-02-05T01:06:50.198Z,98484.42
2018-02-05T01:07:21.821Z,98480.98
2018-02-05T01:07:53.441Z,98481.83
2018-02-05T01:08:25.066Z,98481.02
2018-02-05T01:08:56.691Z,98481.83
2018-02-05T01:09:28.314Z,98482.72
2018-02-05T01:09:59.945Z,98489.50
2018-02-05T01:10:31.570Z,98489.58
2018-02-05T01:11:03.189Z,98487.83
2018-02-05T01:11:34.853Z,98488.64
2018-02-05T01:12:06.482Z,98484.86
2018-02-05T01:12:38.110Z,98486.13
2018-02-05T01:13:09.738Z,98488.69
2018-02-05T01:13:41.358Z,98489.92
2018-02-05T01:14:12.981Z,98489.95
2018-02-05T01:14:44.606Z,98485.74
2018-02-05T01:15:16.234Z,98489.50
2018-02-05T01:15:47.858Z,98489.50
2018-02-05T01:16:19.537Z,98487.37
2018-02-05T01:16:51.161Z,98488.68
2018-02-05T01:17:22.790Z,98495.07
2018-02-05T01:17:54.418Z,98491.23
2018-02-05T01:18:26.041Z,98489.92
2018-02-05T01:18:57.662Z,98483.91
2018-02-05T01:19:29.289Z,98492.81
2018-02-05T01:20:00.917Z,98493.28
2018-02-05T01:20:32.546Z,98487.36
2018-02-05T01:21:04.189Z,98491.58
2018-02-05T01:21:35.853Z,98490.73
2018-02-05T01:22:07.478Z,98489.03
2018-02-05T01:22:39.101Z,98491.16
2018-02-05T01:23:10.725Z,98498.01
2018-02-05T01:23:42.345Z,98493.36
2018-02-05T01:24:13.978Z,98492.05
2018-02-05T01:24:45.601Z,98493.75
2018-02-05T01:25:17.264Z,98494.65
2018-02-05T01:25:48.889Z,98492.95
2018-02-05T01:26:20.510Z,98496.35
2018-02-05T01:26:52.173Z,98495.92
2018-02-05T01:27:23.797Z,98491.70
2018-02-05T01:27:55.418Z,98494.65
2018-02-05T01:28:27.041Z,98496.34
2018-02-05T01:28:58.669Z,98497.63
2018-02-05T01:29:30.294Z,98495.07
2018-02-05T01:30:01.917Z,98495.07
2018-02-05T01:30:33.538Z,98495.50
2018-02-05T01:31:05.166Z,98495.92
2018-02-05T01:31:36.790Z,98496.39
2018-02-05T01:32:08.490Z,98498.09
2018-02-05T01:32:40.112Z,98499.80
2018-02-05T01:33:11.742Z,98498.91
2018-02-05T01:33:43.406Z,98495.92
2018-02-05T01:34:15.035Z,98489.15
2018-02-05T01:34:46.661Z,98494.64
2018-02-05T01:35:18.281Z,98501.45
2018-02-05T01:35:49.900Z,98496.77
2018-02-05T01:36:21.522Z,98503.20
2018-02-05T01:36:53.150Z,98502.30
2018-02-05T01:37:24.780Z,98497.55
2018-02-05T01:37:56.622Z,98502.66
2018-02-05T01:38:28.250Z,98500.91
2018-02-05T01:38:59.873Z,98500.52
2018-02-05T01:39:31.502Z,98498.78
2018-02-05T01:40:03.121Z,98494.52
2018-02-05T01:40:34.750Z,98500.48
2018-02-05T01:41:06.418Z,98496.64
2018-02-05T01:41:38.038Z,98499.16
2018-02-05T01:42:09.657Z,98499.87
2018-02-05T01:42:41.277Z,98501.97
2018-02-05T01:43:12.937Z,98502.91
2018-02-05T01:43:44.557Z,98504.74
2018-02-05T01:44:16.177Z,98499.28
2018-02-05T01:44:47.797Z,98507.46
2018-02-05T01:45:19.426Z,98500.69
2018-02-05T01:45:51.050Z,98499.41
2018-02-05T01:46:22.689Z,98500.22
2018-02-05T01:46:54.378Z,98509.16
2018-02-05T01:47:25.997Z,98506.57
2018-02-05T01:47:57.617Z,98508.31
2018-02-05T01:48:29.237Z,98510.48
2018-02-05T01:49:00.866Z,98510.48
2018-02-05T01:49:32.493Z,98500.70
2018-02-05T01:50:04.119Z,98502.83
2018-02-05T01:50:35.742Z,98502.86
2018-02-05T01:51:07.370Z,98510.95
2018-02-05T01:51:38.997Z,98509.20
2018-02-05T01:52:10.624Z,98509.67
2018-02-05T01:52:42.250Z,98510.09
2018-02-05T01:53:13.877Z,98509.26
2018-02-05T01:53:45.505Z,98513.52
2018-02-05T01:54:17.133Z,98513.09
2018-02-05T01:54:48.769Z,98506.31
2018-02-05T01:55:20.398Z,98513.11
2018-02-05T01:55:52.021Z,98502.01
2018-02-05T01:56:23.641Z,98515.21
2018-02-05T01:56:55.262Z,98503.28
2018-02-05T01:57:26.925Z,98509.20
2018-02-05T01:57:58.545Z,98513.89
2018-02-05T01:58:30.178Z,98513.46
2018-02-05T01:59:01.805Z,98508.73
2018-02-05T01:59:33.425Z,98506.19
2018-02-05T02:00:05.093Z,98510.88
2018-02-05T02:00:36.713Z,98507.42
2018-02-05T02:01:08.333Z,98512.95
2018-02-05T02:01:39.961Z,98512.56
2018-02-05T02:02:11.581Z,98516.83
2018-02-05T02:02:43.201Z,98510.48
2018-02-05T02:03:14.830Z,98515.13
2018-02-05T02:03:46.460Z,98515.13
2018-02-05T02:04:18.273Z,98517.69
2018-02-05T02:04:49.898Z,98516.48
2018-02-05T02:05:21.526Z,98514.74
2018-02-05T02:05:53.153Z,98512.61
2018-02-05T02:06:24.777Z,98509.64
2018-02-05T02:06:56.398Z,98507.92
2018-02-05T02:07:28.025Z,98511.77
2018-02-05T02:07:59.649Z,98512.58
2018-02-05T02:08:31.272Z,98509.20
2018-02-05T02:09:02.962Z,98508.36
2018-02-05T02:09:34.586Z,98513.89
2018-02-05T02:10:06.257Z,98507.97
2018-02-05T02:10:37.885Z,98512.66
2018-02-05T02:11:09.510Z,98515.63
2018-02-05T02:11:41.133Z,98513.93
2018-02-05T02:12:12.756Z,98519.00
2018-02-05T02:12:44.377Z,98524.58
2018-02-05T02:13:16.002Z,98520.31
2018-02-05T02:13:47.626Z,98515.25
2018-02-05T02:14:19.245Z,98521.63
2018-02-05T02:14:50.865Z,98523.34
2018-02-05T02:15:22.485Z,98519.94
2018-02-05T02:15:54.110Z,98519.89
2018-02-05T02:16:25.733Z,98517.77
2018-02-05T02:16:57.373Z,98519.89
2018-02-05T02:17:28.992Z,98516.06
2018-02-05T02:18:00.622Z,98516.91
2018-02-05T02:18:32.290Z,98516.88
2018-02-05T02:19:03.918Z,98515.13
2018-02-05T02:19:35.565Z,98518.96
2018-02-05T02:20:07.186Z,98522.83
2018-02-05T02:20:38.814Z,98518.58
2018-02-05T02:21:10.437Z,98524.58
2018-02-05T02:21:42.057Z,98523.30
2018-02-05T02:22:13.677Z,98522.91
2018-02-05T02:22:45.326Z,98523.34
2018-02-05T02:23:16.974Z,98528.45
2018-02-05T02:23:48.645Z,98526.28
2018-02-05T02:24:20.272Z,98522.95
2018-02-05T02:24:51.898Z,98527.22
2018-02-05T02:25:23.526Z,98526.33
2018-02-05T02:25:55.145Z,98534.84
2018-02-05T02:26:26.878Z,98527.22
2018-02-05T02:26:58.526Z,98528.45
2018-02-05T02:27:30.149Z,98524.61
2018-02-05T02:28:01.774Z,98525.47
2018-02-05T02:28:33.402Z,98531.81
2018-02-05T02:29:05.030Z,98527.94
2018-02-05T02:29:36.653Z,98524.15
2018-02-05T02:30:08.282Z,98527.98
2018-02-05T02:30:39.905Z,98529.27
2018-02-05T02:31:11.525Z,98531.42
2018-02-05T02:31:43.149Z,98533.95
2018-02-05T02:32:14.769Z,98527.14
2018-02-05T02:32:46.394Z,98525.47
2018-02-05T02:33:18.021Z,98529.27
2018-02-05T02:33:49.646Z,98527.60
2018-02-05T02:34:21.275Z,98523.77
2018-02-05T02:34:52.906Z,98527.60
2018-02-05T02:35:24.530Z,98527.17
2018-02-05T02:35:56.197Z,98525.89
2018-02-05T02:36:27.817Z,98526.28
2018-02-05T02:36:59.442Z,98523.73
2018-02-05T02:37:31.061Z,98528.88
2018-02-05T02:38:02.687Z,98526.32
2018-02-05T02:38:34.313Z,98530.16
2018-02-05T02:39:05.942Z,98531.01
2018-02-05T02:39:37.570Z,98529.77
2018-02-05T02:40:09.192Z,98531.05
2018-02-05T02:40:40.858Z,98522.92
2018-02-05T02:41:12.490Z,98529.73
2018-02-05T02:41:44.122Z,98531.01
2018-02-05T02:42:15.749Z,98528.49
2018-02-05T02:42:47.370Z,98524.23
2018-02-05T02:43:18.989Z,98534.84
2018-02-05T02:43:50.610Z,98534.83
2018-02-05T02:44:22.238Z,98533.12
2018-02-05T02:44:53.862Z,98534.41
2018-02-05T02:45:25.490Z,98535.69
2018-02-05T02:45:57.354Z,98535.23
2018-02-05T02:46:28.982Z,98530.58
2018-02-05T02:47:00.626Z,98533.98
2018-02-05T02:47:32.261Z,98542.08
2018-02-05T02:48:03.890Z,98537.81
2018-02-05T02:48:35.510Z,98537.39
2018-02-05T02:49:07.290Z,98540.38
2018-02-05T02:49:38.922Z,98542.47
2018-02-05T02:50:10.549Z,98537.39
2018-02-05T02:50:42.173Z,98541.65
2018-02-05T02:51:13.798Z,98542.08
2018-02-05T02:51:45.424Z,98537.39
2018-02-05T02:52:17.049Z,98541.22
2018-02-05T02:52:48.669Z,98543.74
2018-02-05T02:53:20.299Z,98538.25
2018-02-05T02:53:51.926Z,98544.63
2018-02-05T02:54:23.549Z,98542.08
2018-02-05T02:54:55.173Z,98542.93
2018-02-05T02:55:26.801Z,98541.65
2018-02-05T02:55:58.422Z,98539.06
2018-02-05T02:56:30.085Z,98539.09
2018-02-05T02:57:01.758Z,98544.20
2018-02-05T02:57:33.382Z,98538.67
2018-02-05T02:58:05.010Z,98542.50
2018-02-05T02:58:36.634Z,98544.63
2018-02-05T02:59:08.253Z,98543.74
2018-02-05T02:59:39.878Z,98541.64
2018-02-05T03:00:11.506Z,98540.38
2018-02-05T03:00:43.129Z,98542.50
2018-02-05T03:01:14.757Z,98541.65
2018-02-05T03:01:46.382Z,98541.22
2018-02-05T03:02:18.059Z,98541.64
2018-02-05T03:02:49.749Z,98540.37
2018-02-05T03:03:21.374Z,98545.91
2018-02-05T03:03:53.002Z,98545.90
2018-02-05T03:04:24.621Z,98543.78
2018-02-05T03:04:56.246Z,98546.34
2018-02-05T03:05:27.869Z,98544.67
2018-02-05T03:05:59.498Z,98544.24
2018-02-05T03:06:31.117Z,98547.65
2018-02-05T03:07:02.741Z,98545.95
2018-02-05T03:07:34.405Z,98546.38
2018-02-05T03:08:06.029Z,98544.24
2018-02-05T03:08:37.662Z,98543.39
2018-02-05T03:09:09.291Z,98542.11
2018-02-05T03:09:40.920Z,98545.91
2018-02-05T03:10:12.550Z,98539.98
2018-02-05T03:10:44.182Z,98542.94
2018-02-05T03:11:15.810Z,98542.08
2018-02-05T03:11:47.430Z,98545.91
2018-02-05T03:12:19.089Z,98541.65
2018-02-05T03:12:50.794Z,98547.22
2018-02-05T03:13:22.417Z,98542.97
2018-02-05T03:13:54.043Z,98548.92
2018-02-05T03:14:25.665Z,98546.41
2018-02-05T03:14:57.382Z,98543.39
2018-02-05T03:15:29.002Z,98542.94
2018-02-05T03:16:00.631Z,98543.36
2018-02-05T03:16:32.253Z,98546.30
2018-02-05T03:17:03.873Z,98542.50
2018-02-05T03:17:35.538Z,98549.31
2018-02-05T03:18:07.170Z,98547.19
2018-02-05T03:18:38.802Z,98544.20
2018-02-05T03:19:10.434Z,98545.52
2018-02-05T03:19:42.057Z,98545.48
2018-02-05T03:20:13.678Z,98520.13
2018-02-05T03:20:45.304Z,98545.95
2018-02-05T03:21:16.931Z,98544.63
2018-02-05T03:21:48.562Z,98538.67
2018-02-05T03:22:20.189Z,98543.36
2018-02-05T03:22:51.870Z,98540.80
2018-02-05T03:23:23.499Z,98543.36
2018-02-05T03:23:55.126Z,98542.08
2018-02-05T03:24:26.746Z,98547.19
2018-02-05T03:24:58.373Z,98539.95
2018-02-05T03:25:30.005Z,98536.16
2018-02-05T03:26:01.634Z,98541.69
2018-02-05T03:26:33.257Z,98548.47
2018-02-05T03:27:04.910Z,98549.74
2018-02-05T03:27:36.537Z,98543.78
2018-02-05T03:28:08.157Z,98549.35
2018-02-05T03:28:39.777Z,98550.17
2018-02-05T03:29:11.398Z,98546.38
2018-02-05T03:29:43.026Z,98549.35
2018-02-05T03:30:14.654Z,98549.78
2018-02-05T03:30:46.278Z,98549.39
2018-02-05T03:31:17.906Z,98549.39
2018-02-05T03:31:49.533Z,98550.67
2018-02-05T03:32:21.162Z,98555.39
2018-02-05T03:32:52.782Z,98551.09
2018-02-05T03:33:24.457Z,98549.00
2018-02-05T03:33:56.086Z,98549.39
2018-02-05T03:34:27.713Z,98554.96
2018-02-05T03:34:59.341Z,98549.81
2018-02-05T03:35:30.970Z,98561.77
2018-02-05T03:36:02.593Z,98552.80
2018-02-05T03:36:34.222Z,98550.28
2018-02-05T03:37:05.845Z,98548.12
2018-02-05T03:37:37.469Z,98549.39
2018-02-05T03:38:09.089Z,98548.54
2018-02-05T03:38:40.769Z,98557.48
2018-02-05T03:39:12.393Z,98555.39
2018-02-05T03:39:44.017Z,98555.39
2018-02-05T03:40:15.645Z,98546.02
2018-02-05T03:40:47.265Z,98551.55
2018-02-05T03:41:18.886Z,98549.42
2018-02-05T03:41:50.506Z,98555.39
2018-02-05T03:42:22.129Z,98557.52
2018-02-05T03:42:53.753Z,98553.22
2018-02-05T03:43:25.373Z,98558.33
2018-02-05T03:43:57.042Z,98551.94
2018-02-05T03:44:28.702Z,98560.88
2018-02-05T03:45:00.369Z,98554.50
2018-02-05T03:45:31.994Z,98560.45
2018-02-05T03:46:03.623Z,98557.52
2018-02-05T03:46:35.254Z,98556.20
2018-02-05T03:47:06.877Z,98557.94
2018-02-05T03:47:38.537Z,98567.70
2018-02-05T03:48:10.157Z,98559.61
2018-02-05T03:48:41.781Z,98564.29
2018-02-05T03:49:13.401Z,98567.27
2018-02-05T03:49:45.022Z,98565.99
2018-02-05T03:50:16.645Z,98566.84
2018-02-05T03:50:48.270Z,98566.42
2018-02-05T03:51:19.898Z,98567.27
2018-02-05T03:51:51.522Z,98562.59
2018-02-05T03:52:23.201Z,98570.25
2018-02-05T03:52:54.820Z,98566.84
2018-02-05T03:53:26.445Z,98570.67
2018-02-05T03:53:58.068Z,98570.25
2018-02-05T03:54:29.689Z,98572.34
2018-02-05T03:55:01.313Z,98571.95
2018-02-05T03:55:32.979Z,98573.66
2018-02-05T03:56:04.589Z,98565.14
2018-02-05T03:56:36.209Z,98568.13
2018-02-05T03:57:07.833Z,98567.70
2018-02-05T03:57:39.457Z,98571.92
2018-02-05T03:58:11.077Z,98571.92
2018-02-05T03:58:42.697Z,98568.13
2018-02-05T03:59:14.317Z,98566.80
2018-02-05T03:59:45.946Z,98569.79
2018-02-05T04:00:17.613Z,98571.49
2018-02-05T04:00:49.232Z,98574.47
2018-02-05T04:01:20.857Z,98568.55
2018-02-05T04:01:52.478Z,98567.23
2018-02-05T04:02:24.106Z,98575.32
2018-02-05T04:02:55.766Z,98564.25
2018-02-05T04:03:27.389Z,98567.66
2018-02-05T04:03:59.018Z,98562.98
2018-02-05T04:04:30.641Z,98565.11
2018-02-05T04:05:02.269Z,98564.68
2018-02-05T04:05:33.897Z,98569.36
2018-02-05T04:06:05.524Z,98565.49
2018-02-05T04:06:42.807Z,98567.62
2018-02-05T04:07:16.457Z,98570.17
2018-02-05T04:07:48.082Z,98571.48
2018-02-05T04:08:19.702Z,98566.34
2018-02-05T04:08:51.326Z,98570.60
2018-02-05T04:09:22.950Z,98571.03
2018-02-05T04:09:54.569Z,98571.88
2018-02-05T04:10:26.194Z,98572.73
2018-02-05T04:10:57.817Z,98570.17
2018-02-05T04:11:29.441Z,98568.90
2018-02-05T04:12:01.065Z,98571.45
2018-02-05T04:12:32.685Z,98573.62
2018-02-05T04:13:04.310Z,98574.47
2018-02-05T04:13:35.933Z,98576.14
2018-02-05T04:14:07.558Z,98571.48
2018-02-05T04:14:39.181Z,98571.03
2018-02-05T04:15:10.810Z,98576.98
2018-02-05T04:15:42.434Z,98573.16
2018-02-05T04:16:14.061Z,98566.34
2018-02-05T04:16:45.685Z,98571.45
2018-02-05T04:17:17.354Z,98573.58
2018-02-05T04:17:48.986Z,98568.05
2018-02-05T04:18:20.614Z,98566.34
2018-02-05T04:18:52.241Z,98573.16
2018-02-05T04:19:23.865Z,98565.92
2018-02-05T04:19:55.489Z,98566.77
2018-02-05T04:20:27.122Z,98572.30
2018-02-05T04:20:58.744Z,98567.20
2018-02-05T04:21:30.422Z,98570.60
2018-02-05T04:22:02.070Z,98570.17
2018-02-05T04:22:33.714Z,98575.75
2018-02-05T04:23:05.342Z,98572.34
2018-02-05T04:23:36.970Z,98571.10
2018-02-05T04:24:08.594Z,98574.47
2018-02-05T04:24:40.221Z,98574.47
2018-02-05T04:25:11.841Z,98575.75
2018-02-05T04:25:43.465Z,98575.32
2018-02-05T04:26:15.085Z,98574.89
2018-02-05T04:26:46.746Z,98571.91
2018-02-05T04:27:18.386Z,98571.06
2018-02-05T04:27:50.010Z,98579.11
2018-02-05T04:28:21.640Z,98581.67
2018-02-05T04:28:53.265Z,98574.44
2018-02-05T04:29:24.885Z,98582.06
2018-02-05T04:29:56.514Z,98580.39
2018-02-05T04:30:28.142Z,98583.80
2018-02-05T04:30:59.765Z,98581.24
2018-02-05T04:31:31.385Z,98581.28
2018-02-05T04:32:03.069Z,98581.28
2018-02-05T04:32:34.689Z,98590.19
2018-02-05T04:33:06.313Z,98588.09
2018-02-05T04:33:37.934Z,98581.28
2018-02-05T04:34:09.602Z,98585.11
2018-02-05T04:34:41.254Z,98591.03
2018-02-05T04:35:12.897Z,98587.63
2018-02-05T04:35:44.517Z,98592.35
2018-02-05T04:36:16.141Z,98592.78
2018-02-05T04:36:47.766Z,98594.05
2018-02-05T04:37:19.395Z,98594.48
2018-02-05T04:37:51.018Z,98589.38
2018-02-05T04:38:22.686Z,98591.08
2018-02-05T04:38:54.313Z,98589.80
2018-02-05T04:39:25.969Z,98593.63
2018-02-05T04:39:57.589Z,98594.91
2018-02-05T04:40:29.278Z,98594.05
2018-02-05T04:41:00.906Z,98603.88
2018-02-05T04:41:32.534Z,98595.37
2018-02-05T04:42:04.154Z,98597.89
2018-02-05T04:42:35.777Z,98596.64
2018-02-05T04:43:07.401Z,98600.47
2018-02-05T04:43:39.069Z,98600.91
2018-02-05T04:44:10.698Z,98603.48
2018-02-05T04:44:42.328Z,98599.66
2018-02-05T04:45:13.949Z,98602.22
2018-02-05T04:45:45.569Z,98596.19
2018-02-05T04:46:17.229Z,98600.05
2018-02-05T04:46:48.849Z,98597.89
2018-02-05T04:47:20.476Z,98598.31
2018-02-05T04:47:52.097Z,98596.57
2018-02-05T04:48:23.725Z,98593.63
2018-02-05T04:48:55.349Z,98597.89
2018-02-05T04:49:26.976Z,98596.18
2018-02-05T04:49:58.597Z,98596.18
2018-02-05T04:50:30.225Z,98595.33
2018-02-05T04:51:01.845Z,98596.18
2018-02-05T04:51:33.509Z,98597.45
2018-02-05T04:52:05.134Z,98601.30
2018-02-05T04:52:36.766Z,98601.72
2018-02-05T04:53:08.394Z,98598.73
2018-02-05T04:53:40.014Z,98595.33
2018-02-05T04:54:11.638Z,98602.56
2018-02-05T04:54:43.266Z,98598.73
2018-02-05T04:55:14.894Z,98598.73
2018-02-05T04:55:46.522Z,98599.13
2018-02-05T04:56:18.190Z,98601.25
2018-02-05T04:56:49.809Z,98599.94
2018-02-05T04:57:21.433Z,98599.52
2018-02-05T04:57:53.053Z,98598.70
2018-02-05T04:58:24.676Z,98600.40
2018-02-05T04:58:56.300Z,98605.51
2018-02-05T04:59:27.927Z,98603.38
2018-02-05T04:59:59.562Z,98601.29
2018-02-05T05:00:31.190Z,98605.13
2018-02-05T05:01:02.816Z,98606.83
2018-02-05T05:01:34.486Z,98600.83
2018-02-05T05:02:06.117Z,98610.20
2018-02-05T05:02:37.745Z,98614.45
2018-02-05T05:03:09.370Z,98604.70
2018-02-05T05:03:40.997Z,98611.51
2018-02-05T05:04:12.629Z,98609.80
2018-02-05T05:04:44.253Z,98606.44
2018-02-05T05:05:15.873Z,98608.56
2018-02-05T05:05:47.504Z,98608.59
2018-02-05T05:06:19.146Z,98610.27
2018-02-05T05:06:50.765Z,98611.55
2018-02-05T05:07:22.387Z,98612.82
2018-02-05T05:07:54.062Z,98592.92
2018-02-05T05:08:25.684Z,98608.56
2018-02-05T05:08:57.317Z,98614.91
2018-02-05T05:09:28.940Z,98614.48
2018-02-05T05:10:00.561Z,98613.64
2018-02-05T05:10:32.181Z,98613.21
2018-02-05T05:11:03.802Z,98614.52
2018-02-05T05:11:35.430Z,98617.47
2018-02-05T05:12:07.058Z,98621.73
2018-02-05T05:12:38.686Z,98619.20
2018-02-05T05:13:10.358Z,98611.61
2018-02-05T05:13:41.986Z,98611.97
2018-02-05T05:14:13.610Z,98615.38
2018-02-05T05:14:45.237Z,98618.35
2018-02-05T05:15:16.866Z,98613.67
2018-02-05T05:15:48.498Z,98616.23
2018-02-05T05:16:20.122Z,98617.47
2018-02-05T05:16:51.746Z,98616.19
2018-02-05T05:17:23.365Z,98615.77
2018-02-05T05:17:54.985Z,98615.34
2018-02-05T05:18:26.645Z,98613.67
2018-02-05T05:18:58.274Z,98621.73
2018-02-05T05:19:29.902Z,98618.78
2018-02-05T05:20:01.530Z,98618.78
2018-02-05T05:20:33.150Z,98618.32
2018-02-05T05:21:04.773Z,98626.41
2018-02-05T05:21:36.397Z,98625.12
2018-02-05T05:22:08.025Z,98625.59
2018-02-05T05:22:39.645Z,98619.59
2018-02-05T05:23:11.265Z,98627.69
2018-02-05T05:23:42.885Z,98629.39
2018-02-05T05:24:14.518Z,98623.92
2018-02-05T05:24:46.137Z,98626.09
2018-02-05T05:25:17.766Z,98622.25
2018-02-05T05:25:49.386Z,98621.83
2018-02-05T05:26:21.005Z,98622.68
2018-02-05T05:26:52.630Z,98623.56
2018-02-05T05:27:24.257Z,98622.75
2018-02-05T05:27:55.882Z,98624.48
2018-02-05T05:28:27.509Z,98617.67
2018-02-05T05:28:59.178Z,98630.02
2018-02-05T05:29:30.806Z,98626.64
2018-02-05T05:30:02.430Z,98629.16
2018-02-05T05:30:34.126Z,98627.07
2018-02-05T05:31:05.755Z,98625.34
2018-02-05T05:31:37.381Z,98625.37
2018-02-05T05:32:09.009Z,98630.05
2018-02-05T05:32:40.638Z,98626.68
2018-02-05T05:33:12.305Z,98625.41
2018-02-05T05:33:43.929Z,98625.83
2018-02-05T05:34:15.558Z,98628.80
2018-02-05T05:34:47.200Z,98620.75
2018-02-05T05:35:18.857Z,98624.16
2018-02-05T05:35:50.482Z,98628.84
2018-02-05T05:36:22.110Z,98632.66
2018-02-05T05:36:53.729Z,98626.31
2018-02-05T05:37:25.350Z,98633.52
2018-02-05T05:37:56.977Z,98627.13
2018-02-05T05:38:28.601Z,98634.38
2018-02-05T05:39:00.222Z,98633.52
2018-02-05T05:39:31.841Z,98639.51
2018-02-05T05:40:03.462Z,98631.84
2018-02-05T05:40:35.089Z,98635.25
2018-02-05T05:41:06.717Z,98636.53
2018-02-05T05:41:38.342Z,98639.97
2018-02-05T05:42:09.961Z,98629.75
2018-02-05T05:42:41.586Z,98630.08
2018-02-05T05:43:13.210Z,98631.78
2018-02-05T05:43:44.837Z,98634.77
2018-02-05T05:44:16.457Z,98631.78
2018-02-05T05:44:48.077Z,98638.98
2018-02-05T05:45:19.706Z,98637.28
2018-02-05T05:45:51.334Z,98636.44
2018-02-05T05:46:22.998Z,98638.95
2018-02-05T05:46:54.617Z,98642.78
2018-02-05T05:47:26.237Z,98636.86
2018-02-05T05:47:57.858Z,98641.97
2018-02-05T05:48:29.553Z,98640.72
2018-02-05T05:49:01.182Z,98643.28
2018-02-05T05:49:32.810Z,98641.11
2018-02-05T05:50:04.438Z,98641.94
2018-02-05T05:50:36.061Z,98643.93
2018-02-05T05:51:07.690Z,98648.61
2018-02-05T05:51:39.318Z,98650.35
2018-02-05T05:52:10.938Z,98648.68
2018-02-05T05:52:42.566Z,98645.31
2018-02-05T05:53:14.189Z,98654.73
2018-02-05T05:53:45.862Z,98650.94
2018-02-05T05:54:17.481Z,98650.02
2018-02-05T05:54:49.105Z,98655.09
2018-02-05T05:55:20.734Z,98654.25
2018-02-05T05:55:52.361Z,98651.27
2018-02-05T05:56:23.985Z,98655.98
2018-02-05T05:56:55.605Z,98657.68
2018-02-05T05:57:27.230Z,98655.16
2018-02-05T05:57:58.853Z,98657.29
2018-02-05T05:58:30.475Z,98658.99
2018-02-05T05:59:02.224Z,98656.86
2018-02-05T05:59:33.853Z,98659.87
2018-02-05T06:00:05.474Z,98655.59
2018-02-05T06:00:37.097Z,98653.06
2018-02-05T06:01:08.717Z,98654.77
2018-02-05T06:01:40.345Z,98657.75
2018-02-05T06:02:11.974Z,98651.78
2018-02-05T06:02:43.598Z,98659.02
2018-02-05T06:03:15.226Z,98653.48
2018-02-05T06:03:46.848Z,98663.70
2018-02-05T06:04:18.509Z,98664.52
2018-02-05T06:04:50.142Z,98664.95
2018-02-05T06:05:21.767Z,98660.27
2018-02-05T06:05:53.397Z,98660.69
2018-02-05T06:06:25.026Z,98665.34
2018-02-05T06:06:56.645Z,98667.08
2018-02-05T06:07:28.273Z,98668.36
2018-02-05T06:07:59.900Z,98668.36
2018-02-05T06:08:31.521Z,98671.33
2018-02-05T06:09:03.205Z,98670.91
2018-02-05T06:09:34.829Z,98671.73
2018-02-05T06:10:06.450Z,98670.45
2018-02-05T06:10:38.078Z,98675.10
2018-02-05T06:11:09.762Z,98674.25
2018-02-05T06:11:41.385Z,98678.91